Time;durP1;ratioP1;P1;durP2;ratioP2;P2;SDS_P1;SDS_P2;PMS_P1;PMS_P2;Temp;Humidity;BMP_temperature;BMP_pressure;BME280_temperature;BME280_humidity;BME280_pressure;Samples;Min_cycle;Max_cycle;Signal;HPM_P1;HPM_P2
2023/03/02 00:00:40;;;;;;;;;;;;;;;12.47;65.17;102279.81;1270313;23;730;-63
2023/03/02 00:01:31;;;;;;;;;;;;;;;12.46;64.79;102286.09;1271647;23;610;-63
2023/03/02 00:02:21;;;;;;;;;;;;;;;12.44;65.06;102271.94;1271782;23;614;-63
2023/03/02 00:03:11;;;;;;;;;;;;;;;12.44;65.52;102278.16;1271961;23;642;-63
2023/03/02 00:04:02;;;;;;;;;;;;;;;12.44;64.94;102272.81;1271639;23;661;-63
2023/03/02 00:04:52;;;;;;;;;;;;;;;12.44;65.57;102279.97;1272012;23;689;-63
2023/03/02 00:05:45;;;;;;;;;;;;;;;12.42;65.62;102277.38;1271630;23;625;-63
2023/03/02 00:06:36;;;;;;;;;;;;;;;12.42;64.93;102282.72;1270203;23;623;-63
2023/03/02 00:07:26;;;;;;;;;;;;;;;12.43;65.31;102276.41;1271893;23;610;-63
2023/03/02 00:08:17;;;;;;;;;;;;;;;12.42;64.82;102279.16;1271777;23;689;-63
2023/03/02 00:09:08;;;;;;;;;;;;;;;12.42;64.77;102273.81;1271810;23;685;-63
2023/03/02 00:09:58;;;;;;;;;;;;;;;12.41;64.76;102278.31;1271676;23;641;-63
2023/03/02 00:10:48;;;;;;;;;;;;;;;12.42;65.33;102279.16;1272068;23;657;-63
2023/03/02 00:11:39;;;;;;;;;;;;;;;12.40;65.02;102278.38;1271698;23;602;-63
2023/03/02 00:12:29;;;;;;;;;;;;;;;12.41;65.67;102282.78;1270485;23;696;-63
2023/03/02 00:13:20;;;;;;;;;;;;;;;12.39;64.84;102273.97;1272595;23;614;-63
2023/03/02 00:14:10;;;;;;;;;;;;;;;12.39;64.71;102279.31;1271857;23;653;-62
2023/03/02 00:15:01;;;;;;;;;;;;;;;12.39;65.54;102277.50;1272493;23;621;-62
2023/03/02 00:15:51;;;;;;;;;;;;;;;12.38;65.41;102277.59;1271863;23;674;-62
2023/03/02 00:16:41;;;;;;;;;;;;;;;12.39;65.17;102272.16;1271938;23;645;-62
2023/03/02 00:17:32;;;;;;;;;;;;;;;12.39;65.63;102277.50;1271668;23;598;-62
2023/03/02 00:18:22;;;;;;;;;;;;;;;12.40;65.15;102275.72;1271934;23;650;-62
2023/03/02 00:19:13;;;;;;;;;;;;;;;12.40;65.52;102276.56;1272455;23;658;-62
2023/03/02 00:20:09;;;;;;;;;;;;;;;12.40;65.14;102275.72;1271837;23;618;-62
2023/03/02 00:21:00;;;;;;;;;;;;;;;12.38;65.81;102281.13;1271634;23;615;-63
2023/03/02 00:21:50;;;;;;;;;;;;;;;12.37;64.84;102271.38;1272044;23;625;-63
2023/03/02 00:22:41;;;;;;;;;;;;;;;12.37;64.91;102270.50;1271660;23;600;-63
2023/03/02 00:23:31;;;;;;;;;;;;;;;12.36;65.03;102277.66;1271994;23;1031;-62
2023/03/02 00:24:22;;;;;;;;;;;;;;;12.35;64.98;102278.63;1270449;23;650;-62
2023/03/02 00:25:12;;;;;;;;;;;;;;;12.34;65.85;102273.34;1273067;23;676;-62
2023/03/02 00:26:03;;;;;;;;;;;;;;;12.35;65.43;102267.06;1273427;23;645;-62
2023/03/02 00:26:53;;;;;;;;;;;;;;;12.36;65.57;102266.13;1271801;23;1897;-63
2023/03/02 00:27:44;;;;;;;;;;;;;;;12.35;65.51;102261.72;1269827;23;655;-62
2023/03/02 00:28:34;;;;;;;;;;;;;;;12.35;65.59;102267.94;1271722;23;598;-63
2023/03/02 00:29:25;;;;;;;;;;;;;;;12.34;64.82;102265.34;1271918;23;606;-63
2023/03/02 00:30:15;;;;;;;;;;;;;;;12.34;64.91;102263.53;1271620;23;856;-63
2023/03/02 00:31:05;;;;;;;;;;;;;;;12.34;64.97;102260.00;1271907;23;622;-63
2023/03/02 00:31:56;;;;;;;;;;;;;;;12.33;65.83;102267.16;1272558;23;627;-63
2023/03/02 00:32:46;;;;;;;;;;;;;;;12.31;65.53;102253.00;1271819;23;706;-63
2023/03/02 00:33:37;;;;;;;;;;;;;;;12.33;65.41;102260.94;1272476;23;692;-63
2023/03/02 00:34:29;;;;;;;;;;;;;;;12.32;64.88;102259.19;1271763;23;611;-62
2023/03/02 00:35:19;;;;;;;;;;;;;;;12.32;65.69;102261.88;1270628;23;606;-62
2023/03/02 00:36:09;;;;;;;;;;;;;;;12.30;65.34;102258.41;1273126;23;633;-62
2023/03/02 00:37:00;;;;;;;;;;;;;;;12.31;64.99;102260.13;1273357;23;601;-62
2023/03/02 00:37:50;;;;;;;;;;;;;;;12.32;64.75;102264.53;1271396;23;669;-63
2023/03/02 00:38:41;;;;;;;;;;;;;;;12.30;65.11;102256.59;1272509;23;618;-63
2023/03/02 00:39:31;;;;;;;;;;;;;;;12.30;65.41;102258.41;1271833;23;640;-63
2023/03/02 00:40:21;;;;;;;;;;;;;;;12.31;65.48;102260.13;1271884;23;693;-63
2023/03/02 00:41:12;;;;;;;;;;;;;;;12.30;64.79;102258.41;1271651;23;618;-63
2023/03/02 00:42:02;;;;;;;;;;;;;;;12.28;65.02;102261.16;1271902;23;670;-63
2023/03/02 00:42:53;;;;;;;;;;;;;;;12.28;65.03;102260.28;1271719;23;618;-63
2023/03/02 00:43:43;;;;;;;;;;;;;;;12.26;65.52;102262.16;1271827;23;657;-63
2023/03/02 00:44:34;;;;;;;;;;;;;;;12.26;65.69;102256.81;1272551;23;641;-63
2023/03/02 00:45:24;;;;;;;;;;;;;;;12.27;65.44;102264.75;1271688;23;646;-63
2023/03/02 00:46:14;;;;;;;;;;;;;;;12.27;65.50;102263.91;1270787;23;673;-63
2023/03/02 00:47:05;;;;;;;;;;;;;;;12.27;65.46;102262.09;1272009;23;1916;-63
2023/03/02 00:47:55;;;;;;;;;;;;;;;12.27;65.75;102259.41;1273477;23;788;-63
2023/03/02 00:48:46;;;;;;;;;;;;;;;12.27;65.06;102263.91;1269836;23;658;-63
2023/03/02 00:49:36;;;;;;;;;;;;;;;12.26;65.62;102273.72;1271861;23;626;-63
2023/03/02 00:50:27;;;;;;;;;;;;;;;12.25;64.98;102261.28;1272388;23;646;-63
2023/03/02 00:51:17;;;;;;;;;;;;;;;12.26;65.09;102262.16;1269894;23;599;-63
2023/03/02 00:52:07;;;;;;;;;;;;;;;12.24;65.28;102258.69;1271305;23;658;-63
2023/03/02 00:52:58;;;;;;;;;;;;;;;12.24;65.76;102272.06;1271642;23;598;-63
2023/03/02 00:53:48;;;;;;;;;;;;;;;12.23;65.65;102259.63;1271731;23;634;-64
2023/03/02 00:54:39;;;;;;;;;;;;;;;12.23;64.89;102256.97;1272542;23;641;-64
2023/03/02 00:55:29;;;;;;;;;;;;;;;12.22;64.92;102260.56;1271610;23;606;-64
2023/03/02 00:56:19;;;;;;;;;;;;;;;12.22;65.77;102258.78;1270822;23;705;-64
2023/03/02 00:57:10;;;;;;;;;;;;;;;12.21;65.05;102256.16;1272092;23;655;-64
2023/03/02 00:58:00;;;;;;;;;;;;;;;12.22;65.17;102261.44;1273380;23;669;-64
2023/03/02 00:58:51;;;;;;;;;;;;;;;12.24;65.37;102256.03;1273144;23;1206;-64
2023/03/02 00:59:41;;;;;;;;;;;;;;;12.21;65.70;102249.03;1271731;23;607;-64
2023/03/02 01:00:33;;;;;;;;;;;;;;;12.20;65.96;102246.41;1271984;23;680;-64
2023/03/02 01:01:23;;;;;;;;;;;;;;;12.20;65.82;102249.09;1271778;23;642;-65
2023/03/02 01:02:13;;;;;;;;;;;;;;;12.20;65.49;102252.63;1271820;23;681;-65
2023/03/02 01:03:04;;;;;;;;;;;;;;;12.22;65.56;102249.88;1271628;23;657;-65
2023/03/02 01:03:54;;;;;;;;;;;;;;;12.20;65.21;102255.31;1270275;23;661;-64
2023/03/02 01:04:45;;;;;;;;;;;;;;;12.19;65.53;102250.91;1269839;23;619;-64
2023/03/02 01:05:36;;;;;;;;;;;;;;;12.21;65.43;102248.16;1271597;23;775;-64
2023/03/02 01:06:26;;;;;;;;;;;;;;;12.20;65.60;102247.28;1271641;23;665;-64
2023/03/02 01:07:17;;;;;;;;;;;;;;;12.18;65.14;102252.69;1271975;23;619;-64
2023/03/02 01:08:07;;;;;;;;;;;;;;;12.20;65.18;102251.75;1271572;23;666;-64
2023/03/02 01:08:57;;;;;;;;;;;;;;;12.18;65.52;102248.34;1270410;23;669;-64
2023/03/02 01:09:48;;;;;;;;;;;;;;;12.18;65.40;102245.66;1269879;23;610;-64
2023/03/02 01:10:38;;;;;;;;;;;;;;;12.17;65.37;102247.47;1271962;23;666;-64
2023/03/02 01:11:29;;;;;;;;;;;;;;;12.18;65.36;102253.69;1271578;23;618;-63
2023/03/02 01:12:19;;;;;;;;;;;;;;;12.16;65.85;102243.94;1271795;23;704;-63
2023/03/02 01:13:10;;;;;;;;;;;;;;;12.16;65.94;102241.25;1270270;23;699;-63
2023/03/02 01:14:00;;;;;;;;;;;;;;;12.16;65.40;102249.28;1271926;23;614;-64
2023/03/02 01:14:51;;;;;;;;;;;;;;;12.15;65.00;102244.88;1272291;23;844;-63
2023/03/02 01:15:41;;;;;;;;;;;;;;;12.15;65.05;102250.22;1271620;23;662;-63
2023/03/02 01:16:32;;;;;;;;;;;;;;;12.16;65.50;102241.25;1270305;23;661;-64
2023/03/02 01:17:24;;;;;;;;;;;;;;;12.16;64.99;102240.38;1271621;23;653;-63
2023/03/02 01:18:14;;;;;;;;;;;;;;;12.17;65.61;102242.13;1271754;23;654;-64
2023/03/02 01:19:04;;;;;;;;;;;;;;;12.16;65.81;102238.59;1271772;23;666;-64
2023/03/02 01:19:55;;;;;;;;;;;;;;;12.15;65.19;102242.19;1270472;23;646;-64
2023/03/02 01:20:46;;;;;;;;;;;;;;;12.16;65.86;102241.25;1272978;23;653;-62
2023/03/02 01:21:36;;;;;;;;;;;;;;;12.14;65.81;102243.13;1273550;23;661;-64
2023/03/02 01:22:27;;;;;;;;;;;;;;;12.14;65.85;102243.13;1273378;23;668;-63
2023/03/02 01:23:17;;;;;;;;;;;;;;;12.14;65.67;102245.81;1271745;23;1098;-63
2023/03/02 01:24:07;;;;;;;;;;;;;;;12.15;65.18;102244.00;1271813;23;622;-63
2023/03/02 01:24:58;;;;;;;;;;;;;;;12.15;65.75;102241.31;1271533;23;615;-63
2023/03/02 01:25:48;;;;;;;;;;;;;;;12.13;65.18;102244.06;1270352;23;641;-63
2023/03/02 01:26:39;;;;;;;;;;;;;;;12.13;65.38;102241.41;1269811;23;681;-63
2023/03/02 01:27:29;;;;;;;;;;;;;;;12.13;65.43;102246.75;1271595;23;630;-63
2023/03/02 01:28:20;;;;;;;;;;;;;;;12.13;65.33;102241.41;1270801;23;684;-63
2023/03/02 01:29:10;;;;;;;;;;;;;;;12.13;65.45;102237.84;1272091;23;843;-62
2023/03/02 01:30:00;;;;;;;;;;;;;;;12.11;65.76;102240.59;1277547;23;665;-62
2023/03/02 01:30:51;;;;;;;;;;;;;;;12.11;65.60;102237.94;1271790;23;610;-62
2023/03/02 01:31:41;;;;;;;;;;;;;;;12.12;66.10;102250.34;1271840;23;677;-62
2023/03/02 01:32:32;;;;;;;;;;;;;;;12.11;65.20;102235.25;1271593;23;629;-62
2023/03/02 01:33:22;;;;;;;;;;;;;;;12.10;65.79;102241.53;1271714;23;606;-62
2023/03/02 01:34:13;;;;;;;;;;;;;;;12.10;65.37;102238.88;1271896;23;665;-62
2023/03/02 01:35:03;;;;;;;;;;;;;;;12.10;65.32;102238.88;1271511;23;653;-62
2023/03/02 01:35:53;;;;;;;;;;;;;;;12.10;65.79;102238.88;1271360;23;666;-62
2023/03/02 01:36:45;;;;;;;;;;;;;;;12.11;65.76;102243.28;1269800;23;614;-62
2023/03/02 01:37:35;;;;;;;;;;;;;;;12.10;66.04;102236.19;1271675;23;622;-62
2023/03/02 01:38:25;;;;;;;;;;;;;;;12.10;65.36;102238.00;1271819;23;657;-62
2023/03/02 01:39:16;;;;;;;;;;;;;;;12.08;66.14;102235.41;1271534;23;614;-63
2023/03/02 01:40:07;;;;;;;;;;;;;;;12.08;65.92;102240.75;1271717;23;808;-63
2023/03/02 01:40:58;;;;;;;;;;;;;;;12.05;65.60;102235.53;1270480;23;646;-63
2023/03/02 01:41:48;;;;;;;;;;;;;;;12.04;66.13;102233.81;1272225;23;637;-63
2023/03/02 01:42:39;;;;;;;;;;;;;;;12.06;66.08;102234.59;1273784;23;626;-63
2023/03/02 01:43:29;;;;;;;;;;;;;;;12.06;65.64;102239.94;1272056;23;654;-63
2023/03/02 01:44:20;;;;;;;;;;;;;;;12.06;65.32;102234.59;1272731;23;716;-63
2023/03/02 01:45:10;;;;;;;;;;;;;;;12.04;66.33;102236.50;1272118;23;621;-63
2023/03/02 01:46:01;;;;;;;;;;;;;;;12.04;66.14;102233.81;1272170;23;661;-63
2023/03/02 01:46:51;;;;;;;;;;;;;;;12.04;65.47;102235.63;1271877;23;1897;-63
2023/03/02 01:47:41;;;;;;;;;;;;;;;12.03;65.47;102237.44;1270655;23;674;-63
2023/03/02 01:48:32;;;;;;;;;;;;;;;12.05;65.95;102235.53;1272850;23;610;-63
2023/03/02 01:49:22;;;;;;;;;;;;;;;12.04;65.46;102231.16;1270658;23;669;-63
2023/03/02 01:50:13;;;;;;;;;;;;;;;12.06;65.84;102236.41;1272258;23;865;-63
2023/03/02 01:51:04;;;;;;;;;;;;;;;12.04;66.22;102239.16;1272184;23;632;-63
2023/03/02 01:51:54;;;;;;;;;;;;;;;12.04;65.49;102235.63;1272042;23;604;-62
2023/03/02 01:52:44;;;;;;;;;;;;;;;12.04;66.03;102236.50;1272112;23;674;-62
2023/03/02 01:53:35;;;;;;;;;;;;;;;12.02;66.00;102227.69;1272892;23;700;-62
2023/03/02 01:54:25;;;;;;;;;;;;;;;12.02;65.92;102233.03;1272108;23;638;-62
2023/03/02 01:55:16;;;;;;;;;;;;;;;12.01;66.21;102231.28;1272738;23;638;-62
2023/03/02 01:56:06;;;;;;;;;;;;;;;12.01;65.65;102235.75;1272071;23;602;-63
2023/03/02 01:56:57;;;;;;;;;;;;;;;12.02;65.46;102243.72;1271191;23;689;-63
2023/03/02 01:57:47;;;;;;;;;;;;;;;12.02;66.28;102243.72;1273452;23;649;-63
2023/03/02 01:58:38;;;;;;;;;;;;;;;12.01;66.34;102233.97;1273782;23;664;-63
2023/03/02 01:59:28;;;;;;;;;;;;;;;12.01;66.18;102236.63;1272017;23;665;-63
2023/03/02 02:00:18;;;;;;;;;;;;;;;12.02;65.94;102243.72;1272160;23;645;-64
2023/03/02 02:01:14;;;;;;;;;;;;;;;12.00;66.03;102239.41;1272782;23;728;-63
2023/03/02 02:02:04;;;;;;;;;;;;;;;12.00;65.60;102237.56;1271959;23;677;-63
2023/03/02 02:02:55;;;;;;;;;;;;;;;12.01;66.11;102231.28;1272278;23;638;-63
2023/03/02 02:03:45;;;;;;;;;;;;;;;12.02;66.10;102235.69;1271812;23;649;-63
2023/03/02 02:04:36;;;;;;;;;;;;;;;12.01;65.69;102238.44;1271672;23;693;-61
2023/03/02 02:05:27;;;;;;;;;;;;;;;12.01;65.62;102236.63;1270658;23;662;-62
2023/03/02 02:06:17;;;;;;;;;;;;;;;12.02;66.29;102233.03;1270327;23;610;-62
2023/03/02 02:07:07;;;;;;;;;;;;;;;12.03;66.44;102236.56;1272086;23;1897;-62
2023/03/02 02:07:58;;;;;;;;;;;;;;;12.02;66.16;102242.84;1272781;23;662;-61
2023/03/02 02:08:48;;;;;;;;;;;;;;;12.01;66.51;102230.41;1271975;23;720;-61
2023/03/02 02:09:39;;;;;;;;;;;;;;;11.99;65.60;102238.53;1271921;23;642;-62
2023/03/02 02:10:29;;;;;;;;;;;;;;;11.96;66.44;102238.69;1272005;23;654;-62
2023/03/02 02:11:20;;;;;;;;;;;;;;;11.94;65.92;102232.56;1272266;23;615;-62
2023/03/02 02:12:10;;;;;;;;;;;;;;;11.93;65.99;102238.81;1270110;23;663;-62
2023/03/02 02:13:01;;;;;;;;;;;;;;;11.93;66.04;102232.63;1272115;23;641;-62
2023/03/02 02:13:51;;;;;;;;;;;;;;;11.93;65.92;102225.47;1271849;23;665;-62
2023/03/02 02:14:41;;;;;;;;;;;;;;;11.93;66.50;102233.47;1272045;23;665;-62
2023/03/02 02:15:32;;;;;;;;;;;;;;;11.94;66.70;102234.34;1272828;23;646;-62
2023/03/02 02:16:22;;;;;;;;;;;;;;;11.95;66.78;102236.09;1271934;23;626;-62
2023/03/02 02:17:13;;;;;;;;;;;;;;;11.95;65.89;102233.41;1272176;23;656;-62
2023/03/02 02:18:03;;;;;;;;;;;;;;;11.94;66.19;102234.34;1271976;23;653;-62
2023/03/02 02:18:54;;;;;;;;;;;;;;;11.92;66.00;102231.75;1270593;23;701;-63
2023/03/02 02:19:44;;;;;;;;;;;;;;;11.93;65.70;102229.94;1270306;23;649;-62
2023/03/02 02:20:34;;;;;;;;;;;;;;;11.94;66.09;102229.00;1272151;23;692;-62
2023/03/02 02:21:25;;;;;;;;;;;;;;;11.93;66.38;102220.13;1273650;23;661;-62
2023/03/02 02:22:15;;;;;;;;;;;;;;;11.93;66.39;102222.81;1270476;23;982;-62
2023/03/02 02:23:06;;;;;;;;;;;;;;;11.92;65.97;102222.88;1272028;23;634;-62
2023/03/02 02:23:56;;;;;;;;;;;;;;;11.93;65.67;102225.47;1271983;23;637;-62
2023/03/02 02:24:46;;;;;;;;;;;;;;;11.92;66.16;102221.06;1272033;23;599;-62
2023/03/02 02:25:38;;;;;;;;;;;;;;;11.92;66.60;102221.06;1272087;23;611;-62
2023/03/02 02:26:29;;;;;;;;;;;;;;;11.92;65.88;102215.72;1272232;23;622;-62
2023/03/02 02:27:19;;;;;;;;;;;;;;;11.93;66.71;102219.25;1271888;23;590;-62
2023/03/02 02:28:09;;;;;;;;;;;;;;;11.92;65.89;102210.38;1272129;23;614;-63
2023/03/02 02:29:00;;;;;;;;;;;;;;;11.89;66.63;102215.00;1271737;23;669;-62
2023/03/02 02:29:50;;;;;;;;;;;;;;;11.89;66.21;102215.88;1272115;23;630;-62
2023/03/02 02:30:41;;;;;;;;;;;;;;;11.90;66.10;102211.38;1272674;23;724;-62
2023/03/02 02:31:31;;;;;;;;;;;;;;;11.87;66.43;102209.72;1271919;23;645;-62
2023/03/02 02:32:22;;;;;;;;;;;;;;;11.87;66.39;102209.72;1272131;23;661;-62
2023/03/02 02:33:12;;;;;;;;;;;;;;;11.88;65.80;102202.59;1271846;23;642;-62
2023/03/02 02:34:02;;;;;;;;;;;;;;;11.87;66.43;102209.72;1272026;23;661;-62
2023/03/02 02:34:53;;;;;;;;;;;;;;;11.88;65.86;102205.25;1273574;23;747;-62
2023/03/02 02:35:43;;;;;;;;;;;;;;;11.87;66.31;102212.41;1271919;23;609;-62
2023/03/02 02:36:34;;;;;;;;;;;;;;;11.86;66.59;102205.31;1270562;23;665;-62
2023/03/02 02:37:24;;;;;;;;;;;;;;;11.86;65.87;102208.00;1271884;23;603;-62
2023/03/02 02:38:14;;;;;;;;;;;;;;;11.85;66.17;102208.94;1272102;23;693;-62
2023/03/02 02:39:05;;;;;;;;;;;;;;;11.84;65.99;102212.53;1272671;23;609;-62
2023/03/02 02:39:55;;;;;;;;;;;;;;;11.84;66.33;102212.53;1270307;23;920;-62
2023/03/02 02:40:46;;;;;;;;;;;;;;;11.83;66.56;102209.00;1273636;23;649;-62
2023/03/02 02:41:36;;;;;;;;;;;;;;;11.84;66.02;102207.19;1271932;23;646;-62
2023/03/02 02:42:27;;;;;;;;;;;;;;;11.83;66.09;102205.47;1272083;23;767;-62
2023/03/02 02:43:17;;;;;;;;;;;;;;;11.82;66.84;102209.94;1270217;23;646;-62
2023/03/02 02:44:08;;;;;;;;;;;;;;;11.83;65.93;102210.81;1272071;23;657;-62
2023/03/02 02:44:58;;;;;;;;;;;;;;;11.80;65.86;102211.00;1271854;23;614;-62
2023/03/02 02:45:48;;;;;;;;;;;;;;;11.80;66.40;102211.84;1272036;23;693;-62
2023/03/02 02:46:39;;;;;;;;;;;;;;;11.80;66.60;102206.50;1269947;23;614;-62
2023/03/02 02:47:29;;;;;;;;;;;;;;;11.81;66.22;102202.03;1272021;23;598;-62
2023/03/02 02:48:21;;;;;;;;;;;;;;;11.80;66.44;102200.31;1271643;23;641;-62
2023/03/02 02:49:12;;;;;;;;;;;;;;;11.81;66.89;102199.38;1271801;23;657;-62
2023/03/02 02:50:02;;;;;;;;;;;;;;;11.80;66.10;102205.66;1271880;23;610;-62
2023/03/02 02:50:59;;;;;;;;;;;;;;;11.81;66.87;102199.38;1272153;23;652;-62
2023/03/02 02:51:49;;;;;;;;;;;;;;;11.82;66.32;102201.09;1270134;23;646;-62
2023/03/02 02:52:40;;;;;;;;;;;;;;;11.84;66.69;102196.53;1270571;23;638;-62
2023/03/02 02:53:30;;;;;;;;;;;;;;;11.82;66.80;102198.44;1272048;23;653;-63
2023/03/02 02:54:21;;;;;;;;;;;;;;;11.82;66.46;102198.44;1271592;23;658;-62
2023/03/02 02:55:11;;;;;;;;;;;;;;;11.81;66.10;102194.03;1270246;23;595;-62
2023/03/02 02:56:02;;;;;;;;;;;;;;;11.81;66.71;102196.69;1272170;23;779;-63
2023/03/02 02:56:52;;;;;;;;;;;;;;;11.80;65.99;102201.16;1271949;23;669;-63
2023/03/02 02:57:42;;;;;;;;;;;;;;;11.78;66.92;102200.38;1272053;23;646;-62
2023/03/02 02:58:33;;;;;;;;;;;;;;;11.78;66.63;102196.84;1272689;23;630;-63
2023/03/02 02:59:23;;;;;;;;;;;;;;;11.78;66.28;102205.72;1270520;23;682;-63
2023/03/02 03:00:14;;;;;;;;;;;;;;;11.78;66.98;102202.19;1271846;23;649;-63
2023/03/02 03:01:04;;;;;;;;;;;;;;;11.77;66.49;102195.09;1271882;23;619;-62
2023/03/02 03:01:55;;;;;;;;;;;;;;;11.77;66.32;102195.09;1272193;23;855;-63
2023/03/02 03:02:45;;;;;;;;;;;;;;;11.77;66.99;102200.44;1269695;23;614;-63
2023/03/02 03:03:36;;;;;;;;;;;;;;;11.78;66.52;102199.50;1270626;23;623;-63
2023/03/02 03:04:27;;;;;;;;;;;;;;;11.77;66.31;102200.44;1270266;23;654;-63
2023/03/02 03:05:17;;;;;;;;;;;;;;;11.77;66.62;102195.97;1270060;23;736;-63
2023/03/02 03:06:07;;;;;;;;;;;;;;;11.76;66.77;102196.91;1272002;23;642;-63
2023/03/02 03:06:58;;;;;;;;;;;;;;;11.77;67.01;102200.44;1272074;23;1901;-63
2023/03/02 03:07:48;;;;;;;;;;;;;;;11.77;66.48;102192.44;1271867;23;598;-63
2023/03/02 03:08:39;;;;;;;;;;;;;;;11.76;66.28;102196.91;1272061;23;626;-63
2023/03/02 03:09:29;;;;;;;;;;;;;;;11.73;66.84;102189.00;1272703;23;669;-63
2023/03/02 03:10:19;;;;;;;;;;;;;;;11.72;66.40;102191.75;1270376;23;630;-63
2023/03/02 03:11:10;;;;;;;;;;;;;;;11.73;66.88;102188.13;1272576;23;610;-63
2023/03/02 03:12:00;;;;;;;;;;;;;;;11.73;66.14;102198.81;1270214;23;634;-63
2023/03/02 03:12:51;;;;;;;;;;;;;;;11.73;67.07;102193.47;1271907;23;677;-63
2023/03/02 03:13:41;;;;;;;;;;;;;;;11.73;66.20;102196.16;1272802;23;654;-63
2023/03/02 03:14:31;;;;;;;;;;;;;;;11.73;66.84;102193.47;1272022;23;630;-63
2023/03/02 03:15:22;;;;;;;;;;;;;;;11.73;66.12;102190.81;1272544;23;747;-63
2023/03/02 03:16:12;;;;;;;;;;;;;;;11.72;66.53;102195.28;1270382;23;672;-63
2023/03/02 03:17:11;;;;;;;;;;;;;;;11.72;66.08;102187.28;1271172;23;645;-63
2023/03/02 03:18:01;;;;;;;;;;;;;;;11.73;67.09;102190.81;1271892;23;637;-63
2023/03/02 03:18:51;;;;;;;;;;;;;;;11.72;66.87;102191.75;1271942;23;644;-63
2023/03/02 03:19:42;;;;;;;;;;;;;;;11.73;66.27;102190.81;1273635;23;652;-62
2023/03/02 03:20:32;;;;;;;;;;;;;;;11.73;66.11;102194.34;1270316;23;602;-63
2023/03/02 03:21:23;;;;;;;;;;;;;;;11.73;66.34;102190.81;1272070;23;617;-62
2023/03/02 03:22:13;;;;;;;;;;;;;;;11.72;66.94;102186.41;1270071;23;635;-62
2023/03/02 03:23:04;;;;;;;;;;;;;;;11.71;67.06;102188.22;1270614;23;629;-62
2023/03/02 03:23:54;;;;;;;;;;;;;;;11.72;66.58;102197.09;1271799;23;669;-63
2023/03/02 03:24:45;;;;;;;;;;;;;;;11.72;66.21;102191.75;1271899;23;680;-62
2023/03/02 03:25:35;;;;;;;;;;;;;;;11.71;66.97;102192.69;1269988;23;736;-63
2023/03/02 03:26:25;;;;;;;;;;;;;;;11.70;66.12;102188.28;1270222;23;651;-63
2023/03/02 03:27:16;;;;;;;;;;;;;;;11.68;67.16;102190.16;1272482;23;1889;-62
2023/03/02 03:28:06;;;;;;;;;;;;;;;11.69;66.78;102186.56;1270217;23;606;-63
2023/03/02 03:28:57;;;;;;;;;;;;;;;11.69;66.35;102186.56;1272034;23;630;-63
2023/03/02 03:29:47;;;;;;;;;;;;;;;11.70;67.25;102181.13;1271883;23;684;-62
2023/03/02 03:30:38;;;;;;;;;;;;;;;11.70;66.38;102188.28;1271987;23;629;-63
2023/03/02 03:31:28;;;;;;;;;;;;;;;11.69;66.56;102194.56;1271800;23;614;-63
2023/03/02 03:32:18;;;;;;;;;;;;;;;11.68;66.90;102184.81;1271958;23;688;-63
2023/03/02 03:33:09;;;;;;;;;;;;;;;11.68;67.03;102179.47;1271665;23;727;-63
2023/03/02 03:34:00;;;;;;;;;;;;;;;11.68;66.31;102179.47;1269854;23;760;-63
2023/03/02 03:34:50;;;;;;;;;;;;;;;11.67;67.37;102186.63;1270705;23;618;-63
2023/03/02 03:35:41;;;;;;;;;;;;;;;11.65;66.83;102180.47;1273270;23;672;-63
2023/03/02 03:36:31;;;;;;;;;;;;;;;11.66;66.57;102182.22;1273553;23;672;-63
2023/03/02 03:37:22;;;;;;;;;;;;;;;11.65;67.05;102182.28;1271987;23;669;-63
2023/03/02 03:38:12;;;;;;;;;;;;;;;11.67;66.80;102188.44;1271678;23;630;-63
2023/03/02 03:39:02;;;;;;;;;;;;;;;11.65;67.01;102184.97;1271852;23;696;-63
2023/03/02 03:39:53;;;;;;;;;;;;;;;11.64;66.99;102183.25;1273446;23;672;-62
2023/03/02 03:40:43;;;;;;;;;;;;;;;11.64;67.32;102188.59;1271823;23;645;-63
2023/03/02 03:41:34;;;;;;;;;;;;;;;11.64;67.28;102188.59;1272769;23;677;-63
2023/03/02 03:42:24;;;;;;;;;;;;;;;11.64;67.13;102191.28;1269971;23;603;-63
2023/03/02 03:43:15;;;;;;;;;;;;;;;11.64;66.70;102196.59;1271744;23;665;-62
2023/03/02 03:44:05;;;;;;;;;;;;;;;11.64;66.42;102188.59;1271696;23;629;-62
2023/03/02 03:44:56;;;;;;;;;;;;;;;11.65;66.52;102192.97;1271913;23;716;-62
2023/03/02 03:45:46;;;;;;;;;;;;;;;11.64;66.21;102193.94;1272561;23;617;-62
2023/03/02 03:46:36;;;;;;;;;;;;;;;11.63;66.38;102192.22;1270236;23;669;-62
2023/03/02 03:47:27;;;;;;;;;;;;;;;11.62;66.61;102194.00;1272064;23;681;-62
2023/03/02 03:48:17;;;;;;;;;;;;;;;11.62;66.64;102195.81;1271748;23;622;-62
2023/03/02 03:49:08;;;;;;;;;;;;;;;11.62;66.49;102201.16;1270458;23;693;-62
2023/03/02 03:49:58;;;;;;;;;;;;;;;11.62;67.18;102202.03;1272552;23;673;-62
2023/03/02 03:50:49;;;;;;;;;;;;;;;11.62;66.40;102190.47;1272045;23;642;-62
2023/03/02 03:51:39;;;;;;;;;;;;;;;11.62;66.45;102196.69;1272664;23;629;-62
2023/03/02 03:52:29;;;;;;;;;;;;;;;11.62;66.38;102195.81;1270162;23;647;-63
2023/03/02 03:53:20;;;;;;;;;;;;;;;11.61;66.44;102194.09;1271934;23;642;-63
2023/03/02 03:54:10;;;;;;;;;;;;;;;11.61;67.08;102194.09;1271595;23;614;-62
2023/03/02 03:55:01;;;;;;;;;;;;;;;11.61;66.74;102194.94;1271783;23;633;-62
2023/03/02 03:55:52;;;;;;;;;;;;;;;11.61;67.17;102194.94;1271592;23;618;-62
2023/03/02 03:56:43;;;;;;;;;;;;;;;11.61;66.49;102199.41;1269907;23;618;-62
2023/03/02 03:57:34;;;;;;;;;;;;;;;11.60;66.98;102195.88;1271946;23;618;-63
2023/03/02 03:58:24;;;;;;;;;;;;;;;11.60;66.47;102195.00;1271525;23;658;-62
2023/03/02 03:59:15;;;;;;;;;;;;;;;11.61;66.81;102199.41;1271846;23;764;-62
2023/03/02 04:00:06;;;;;;;;;;;;;;;11.61;66.90;102199.41;1271603;23;949;-62
2023/03/02 04:00:57;;;;;;;;;;;;;;;11.59;66.59;102196.81;1271371;23;665;-62
2023/03/02 04:01:47;;;;;;;;;;;;;;;11.57;66.99;102193.34;1272528;23;708;-62
2023/03/02 04:02:38;;;;;;;;;;;;;;;11.58;67.37;102199.56;1271875;23;633;-62
2023/03/02 04:03:28;;;;;;;;;;;;;;;11.58;67.14;102192.41;1273483;23;737;-62
2023/03/02 04:04:18;;;;;;;;;;;;;;;11.58;66.97;102194.22;1271759;23;669;-62
2023/03/02 04:05:09;;;;;;;;;;;;;;;11.59;67.18;102195.94;1270243;23;642;-62
2023/03/02 04:05:59;;;;;;;;;;;;;;;11.58;67.42;102200.44;1271893;23;654;-63
2023/03/02 04:06:50;;;;;;;;;;;;;;;11.58;66.77;102189.75;1270681;23;1956;-62
2023/03/02 04:07:40;;;;;;;;;;;;;;;11.57;67.13;102197.81;1273082;23;583;-62
2023/03/02 04:08:31;;;;;;;;;;;;;;;11.58;66.99;102194.22;1273426;23;673;-62
2023/03/02 04:09:21;;;;;;;;;;;;;;;11.58;67.07;102195.09;1272511;23;696;-62
2023/03/02 04:10:11;;;;;;;;;;;;;;;11.55;67.25;102192.56;1270443;23;685;-63
2023/03/02 04:11:02;;;;;;;;;;;;;;;11.54;66.95;102193.50;1273142;23;625;-63
2023/03/02 04:11:52;;;;;;;;;;;;;;;11.55;67.07;102194.34;1271814;23;633;-63
2023/03/02 04:12:43;;;;;;;;;;;;;;;11.54;66.59;102195.28;1270431;23;670;-63
2023/03/02 04:13:33;;;;;;;;;;;;;;;11.54;66.67;102187.28;1272374;23;744;-63
2023/03/02 04:14:23;;;;;;;;;;;;;;;11.53;67.22;102188.22;1271875;23;630;-63
2023/03/02 04:15:14;;;;;;;;;;;;;;;11.52;67.04;102184.69;1271350;23;630;-63
2023/03/02 04:16:04;;;;;;;;;;;;;;;11.53;66.84;102193.56;1271648;23;630;-63
2023/03/02 04:16:55;;;;;;;;;;;;;;;11.53;67.11;102191.75;1271853;23;673;-63
2023/03/02 04:17:45;;;;;;;;;;;;;;;11.54;66.65;102193.50;1271716;23;665;-63
2023/03/02 04:18:36;;;;;;;;;;;;;;;11.54;66.99;102187.28;1271864;23;705;-63
2023/03/02 04:19:26;;;;;;;;;;;;;;;11.54;66.94;102192.63;1271650;23;747;-63
2023/03/02 04:20:17;;;;;;;;;;;;;;;11.54;66.39;102188.16;1271832;23;638;-63
2023/03/02 04:21:07;;;;;;;;;;;;;;;11.53;66.48;102194.44;1271565;23;622;-63
2023/03/02 04:21:58;;;;;;;;;;;;;;;11.50;67.39;102191.91;1271674;23;677;-63
2023/03/02 04:22:48;;;;;;;;;;;;;;;11.51;67.28;102182.09;1271773;23;701;-63
2023/03/02 04:23:39;;;;;;;;;;;;;;;11.48;66.78;102186.63;1272020;23;630;-63
2023/03/02 04:24:29;;;;;;;;;;;;;;;11.49;67.17;102184.81;1271637;23;606;-63
2023/03/02 04:25:20;;;;;;;;;;;;;;;11.49;66.98;102185.69;1271779;23;692;-63
2023/03/02 04:26:10;;;;;;;;;;;;;;;11.48;67.26;102189.31;1269670;23;891;-63
2023/03/02 04:27:00;;;;;;;;;;;;;;;11.50;67.28;102186.56;1270071;23;1881;-63